EGNV/MME METAR and TAF weather

Enter ICAO airport designator
Station Type Date Time Source
EGNV METAR 2020/09/19 17:20 UTC NOAA

EGNV 191720Z 04014KT 9999 FEW015 SCT020 13/10 Q1023


Station Type Date Time Source
EGNV Decoded METAR 2020/09/19 17:20 UTC NOAA

Tees-Side, United Kingdom (EGNV) 54-31N 001-25W
Sep 19, 2020 - 01:20 PM EDT / 2020.09.19 1720 UTC
Wind: from the NE (040 degrees) at 16 MPH (14 KT):0
Visibility: greater than 7 mile(s):0
Sky conditions: partly cloudy
Temperature: 55 F (13 C)
Dew Point: 50 F (10 C)
Relative Humidity: 81%
Pressure (altimeter): 30.21 in. Hg (1023 hPa)
ob: EGNV 191720Z 04014KT 9999 FEW015 SCT020 13/10 Q1023
cycle: 17

Station Type Date Time Source
EGNV TAF 2020/08/24 06:15 UTC NOAA

TAF TAF EGNV 240512Z 2406/2418 31007KT 9999 BKN016
TEMPO 2406/2410 BKN008

Example: see airport list